Time,TemperatureF,DewpointF,PressureIn,WindDirection,WindDirectionDegrees,WindSpeedMPH,WindSpeedGustMPH,Humidity,HourlyPrecipIn,Conditions,Clouds,dailyrainin,SoftwareType,DateUTC
2013-05-05 00:07:00,45.8,40.0,30.26,East,92,1.0,6.0,79,0.00,,,0.00,weatherlink.com 1.10,2013-05-05 04:07:00,
2013-05-05 00:22:00,45.4,40.0,30.26,East,88,0.0,4.0,80,0.00,,,0.00,weatherlink.com 1.10,2013-05-05 04:22:00,
2013-05-05 00:37:00,44.6,39.0,30.26,East,86,1.0,2.0,82,0.00,,,0.00,weatherlink.com 1.10,2013-05-05 04:37:00,
2013-05-05 00:52:00,43.8,39.0,30.26,ENE,78,0.0,2.0,83,0.00,,,0.00,weatherlink.com 1.10,2013-05-05 04:52:00,
2013-05-05 01:07:00,43.1,39.0,30.26,ENE,78,0.0,1.0,84,0.00,,,0.00,weatherlink.com 1.10,2013-05-05 05:07:00,
2013-05-05 01:22:00,42.6,38.0,30.25,ENE,78,0.0,1.0,85,0.00,,,0.00,weatherlink.com 1.10,2013-05-05 05:22:00,
2013-05-05 01:38:00,42.2,38.0,30.25,ENE,78,0.0,1.0,86,0.00,,,0.00,weatherlink.com 1.10,2013-05-05 05:38:00,
2013-05-05 01:53:00,41.7,38.0,30.25,ENE,78,0.0,1.0,87,0.00,,,0.00,weatherlink.com 1.10,2013-05-05 05:53:00,
2013-05-05 02:08:00,41.1,38.0,30.24,ENE,78,0.0,0.0,88,0.00,,,0.00,weatherlink.com 1.10,2013-05-05 06:08:00,
2013-05-05 02:23:00,40.6,38.0,30.24,ENE,78,0.0,1.0,89,0.00,,,0.00,weatherlink.com 1.10,2013-05-05 06:23:00,
2013-05-05 02:38:00,40.0,37.0,30.24,ENE,78,0.0,1.0,90,0.00,,,0.00,weatherlink.com 1.10,2013-05-05 06:38:00,
2013-05-05 02:53:00,39.8,37.0,30.23,ENE,78,0.0,1.0,91,0.00,,,0.00,weatherlink.com 1.10,2013-05-05 06:53:00,
2013-05-05 03:08:00,39.3,37.0,30.24,ENE,78,0.0,0.0,91,0.00,,,0.00,weatherlink.com 1.10,2013-05-05 07:08:00,
2013-05-05 03:23:00,38.8,36.0,30.24,ENE,78,0.0,0.0,91,0.00,,,0.00,weatherlink.com 1.10,2013-05-05 07:23:00,
2013-05-05 03:38:00,38.4,36.0,30.24,ENE,78,0.0,2.0,92,0.00,,,0.00,weatherlink.com 1.10,2013-05-05 07:38:00,
2013-05-05 03:53:00,37.9,36.0,30.23,ENE,78,0.0,2.0,92,0.00,,,0.00,weatherlink.com 1.10,2013-05-05 07:53:00,
2013-05-05 04:08:00,37.8,36.0,30.24,ENE,78,0.0,0.0,92,0.00,,,0.00,weatherlink.com 1.10,2013-05-05 08:08:00,
2013-05-05 04:23:00,37.6,36.0,30.23,ENE,78,0.0,0.0,93,0.00,,,0.00,weatherlink.com 1.10,2013-05-05 08:23:00,
2013-05-05 04:38:00,37.3,36.0,30.23,ENE,78,0.0,0.0,93,0.00,,,0.00,weatherlink.com 1.10,2013-05-05 08:38:00,
2013-05-05 04:53:00,36.9,35.0,30.23,ENE,78,0.0,1.0,93,0.00,,,0.00,weatherlink.com 1.10,2013-05-05 08:53:00,
2013-05-05 05:08:00,36.6,35.0,30.24,East,96,1.0,2.0,93,0.00,,,0.00,weatherlink.com 1.10,2013-05-05 09:08:00,
2013-05-05 05:23:00,37.0,36.0,30.24,East,96,0.0,1.0,94,0.00,,,0.00,weatherlink.com 1.10,2013-05-05 09:23:00,
2013-05-05 05:38:00,37.2,36.0,30.24,East,96,0.0,1.0,94,0.00,,,0.00,weatherlink.com 1.10,2013-05-05 09:38:00,
2013-05-05 05:53:00,37.8,36.0,30.24,East,96,0.0,0.0,94,0.00,,,0.00,weatherlink.com 1.10,2013-05-05 09:53:00,
2013-05-05 06:08:00,37.8,36.0,30.24,East,96,0.0,0.0,94,0.00,,,0.00,weatherlink.com 1.10,2013-05-05 10:08:00,
2013-05-05 06:23:00,37.4,36.0,30.25,East,96,0.0,0.0,94,0.00,,,0.00,weatherlink.com 1.10,2013-05-05 10:23:00,
2013-05-05 06:38:00,37.4,36.0,30.25,East,96,0.0,0.0,94,0.00,,,0.00,weatherlink.com 1.10,2013-05-05 10:38:00,
2013-05-05 06:53:00,37.9,37.0,30.25,East,96,0.0,1.0,95,0.00,,,0.00,weatherlink.com 1.10,2013-05-05 10:53:00,
2013-05-05 07:08:00,38.7,37.0,30.25,East,96,0.0,0.0,95,0.00,,,0.00,weatherlink.com 1.10,2013-05-05 11:08:00,
2013-05-05 07:23:00,39.7,38.0,30.25,SE,136,0.0,1.0,95,0.00,,,0.00,weatherlink.com 1.10,2013-05-05 11:23:00,
2013-05-05 07:38:00,40.9,40.0,30.26,SE,136,0.0,1.0,95,0.00,,,0.00,weatherlink.com 1.10,2013-05-05 11:38:00,
2013-05-05 07:53:00,42.6,42.0,30.26,SSE,165,2.0,5.0,96,0.00,,,0.00,weatherlink.com 1.10,2013-05-05 11:53:00,
2013-05-05 08:08:00,44.3,42.0,30.26,NE,40,2.0,7.0,92,0.00,,,0.00,weatherlink.com 1.10,2013-05-05 12:08:00,
2013-05-05 08:23:00,46.0,41.0,30.25,SE,140,5.0,5.0,84,0.00,,,0.00,weatherlink.com 1.10,2013-05-05 12:23:00,
2013-05-05 08:38:00,47.3,42.0,30.26,SSE,149,2.0,6.0,81,0.00,,,0.00,weatherlink.com 1.10,2013-05-05 12:38:00,
2013-05-05 08:53:00,48.6,41.0,30.25,East,87,1.0,7.0,75,0.00,,,0.00,weatherlink.com 1.10,2013-05-05 12:53:00,
2013-05-05 09:08:00,49.4,41.0,30.25,NE,46,1.0,8.0,73,0.00,,,0.00,weatherlink.com 1.10,2013-05-05 13:08:00,
2013-05-05 09:23:00,50.5,41.0,30.25,NNE,33,0.0,9.0,69,0.00,,,0.00,weatherlink.com 1.10,2013-05-05 13:23:00,
2013-05-05 09:38:00,51.4,41.0,30.24,NE,52,4.0,8.0,67,0.00,,,0.00,weatherlink.com 1.10,2013-05-05 13:38:00,
2013-05-05 09:54:00,52.4,41.0,30.24,North,11,3.0,7.0,65,0.00,,,0.00,weatherlink.com 1.10,2013-05-05 13:54:00,
2013-05-05 10:09:00,53.0,41.0,30.24,NE,55,2.0,8.0,64,0.00,,,0.00,weatherlink.com 1.10,2013-05-05 14:09:00,
2013-05-05 10:24:00,55.2,41.0,30.24,ENE,63,0.0,6.0,59,0.00,,,0.00,weatherlink.com 1.10,2013-05-05 14:24:00,
2013-05-05 10:39:00,57.3,41.0,30.24,WSW,246,0.0,4.0,55,0.00,,,0.00,weatherlink.com 1.10,2013-05-05 14:39:00,
2013-05-05 10:54:00,58.6,42.0,30.23,SW,219,4.0,8.0,54,0.00,,,0.00,weatherlink.com 1.10,2013-05-05 14:54:00,
2013-05-05 11:09:00,59.8,39.0,30.23,NNE,30,1.0,5.0,46,0.00,,,0.00,weatherlink.com 1.10,2013-05-05 15:09:00,
2013-05-05 11:24:00,61.6,39.0,30.23,ENE,77,3.0,6.0,44,0.00,,,0.00,weatherlink.com 1.10,2013-05-05 15:24:00,
2013-05-05 11:39:00,62.1,39.0,30.22,East,80,5.0,5.0,42,0.00,,,0.00,weatherlink.com 1.10,2013-05-05 15:39:00,
2013-05-05 11:54:00,61.5,38.0,30.22,East,83,0.0,7.0,42,0.00,,,0.00,weatherlink.com 1.10,2013-05-05 15:54:00,
2013-05-05 12:09:00,62.1,39.0,30.21,East,84,5.0,8.0,42,0.00,,,0.00,weatherlink.com 1.10,2013-05-05 16:09:00,
2013-05-05 12:24:00,62.0,37.0,30.21,ENE,78,4.0,10.0,40,0.00,,,0.00,weatherlink.com 1.10,2013-05-05 16:24:00,
2013-05-05 12:39:00,63.0,37.0,30.20,East,84,2.0,8.0,39,0.00,,,0.00,weatherlink.com 1.10,2013-05-05 16:39:00,
2013-05-05 12:54:00,63.6,37.0,30.20,ENE,78,2.0,8.0,37,0.00,,,0.00,weatherlink.com 1.10,2013-05-05 16:54:00,
2013-05-05 13:09:00,64.3,37.0,30.19,NE,44,4.0,8.0,37,0.00,,,0.00,weatherlink.com 1.10,2013-05-05 17:09:00,
2013-05-05 13:24:00,65.8,37.0,30.19,ESE,116,1.0,9.0,34,0.00,,,0.00,weatherlink.com 1.10,2013-05-05 17:24:00,
2013-05-05 13:39:00,66.9,38.0,30.19,East,87,5.0,9.0,35,0.00,,,0.00,weatherlink.com 1.10,2013-05-05 17:39:00,
2013-05-05 13:54:00,66.9,38.0,30.18,East,98,9.0,9.0,35,0.00,,,0.00,weatherlink.com 1.10,2013-05-05 17:54:00,
2013-05-05 14:09:00,67.5,37.0,30.18,SE,141,3.0,8.0,32,0.00,,,0.00,weatherlink.com 1.10,2013-05-05 18:09:00,
2013-05-05 14:24:00,69.2,38.0,30.18,ESE,112,4.0,11.0,32,0.00,,,0.00,weatherlink.com 1.10,2013-05-05 18:24:00,
2013-05-05 14:39:00,70.4,38.0,30.18,SSW,207,7.0,10.0,31,0.00,,,0.00,weatherlink.com 1.10,2013-05-05 18:39:00,
2013-05-05 14:54:00,70.3,36.0,30.17,ESE,103,1.0,11.0,28,0.00,,,0.00,weatherlink.com 1.10,2013-05-05 18:54:00,
2013-05-05 15:09:00,71.9,40.0,30.16,East,92,2.0,8.0,31,0.00,,,0.00,weatherlink.com 1.10,2013-05-05 19:09:00,
2013-05-05 15:24:00,69.4,36.0,30.16,NNE,30,2.0,12.0,29,0.00,,,0.00,weatherlink.com 1.10,2013-05-05 19:24:00,
2013-05-05 15:40:00,69.6,38.0,30.16,SE,136,6.0,8.0,31,0.00,,,0.00,weatherlink.com 1.10,2013-05-05 19:40:00,
2013-05-05 15:55:00,69.7,38.0,30.16,SSW,195,0.0,7.0,31,0.00,,,0.00,weatherlink.com 1.10,2013-05-05 19:55:00,
2013-05-05 16:10:00,68.8,35.0,30.16,SE,132,5.0,14.0,29,0.00,,,0.00,weatherlink.com 1.10,2013-05-05 20:10:00,
2013-05-05 16:25:00,68.0,35.0,30.16,SSE,153,5.0,9.0,30,0.00,,,0.00,weatherlink.com 1.10,2013-05-05 20:25:00,
2013-05-05 16:40:00,67.6,34.0,30.15,SSW,197,4.0,13.0,29,0.00,,,0.00,weatherlink.com 1.10,2013-05-05 20:40:00,
2013-05-05 16:55:00,67.6,34.0,30.15,ESE,117,5.0,10.0,29,0.00,,,0.00,weatherlink.com 1.10,2013-05-05 20:55:00,
2013-05-05 17:10:00,67.8,43.0,30.15,SW,219,0.0,7.0,41,0.00,,,0.00,weatherlink.com 1.10,2013-05-05 21:10:00,
2013-05-05 17:25:00,66.8,43.0,30.15,SSW,197,4.0,12.0,42,0.00,,,0.00,weatherlink.com 1.10,2013-05-05 21:25:00,
2013-05-05 17:40:00,65.7,44.0,30.16,SE,128,5.0,11.0,45,0.00,,,0.00,weatherlink.com 1.10,2013-05-05 21:40:00,
2013-05-05 17:55:00,64.5,44.0,30.16,East,88,1.0,11.0,48,0.00,,,0.00,weatherlink.com 1.10,2013-05-05 21:55:00,
2013-05-05 18:10:00,64.3,44.0,30.16,ESE,103,3.0,13.0,48,0.00,,,0.00,weatherlink.com 1.10,2013-05-05 22:10:00,
2013-05-05 18:25:00,63.1,43.0,30.16,SSE,157,0.0,10.0,49,0.00,,,0.00,weatherlink.com 1.10,2013-05-05 22:25:00,
2013-05-05 18:40:00,62.1,43.0,30.17,ESE,116,1.0,10.0,50,0.00,,,0.00,weatherlink.com 1.10,2013-05-05 22:40:00,
2013-05-05 18:55:00,61.3,43.0,30.17,ESE,108,0.0,8.0,51,0.00,,,0.00,weatherlink.com 1.10,2013-05-05 22:55:00,
2013-05-05 19:10:00,60.3,43.0,30.18,East,94,0.0,6.0,53,0.00,,,0.00,weatherlink.com 1.10,2013-05-05 23:10:00,
2013-05-05 19:25:00,59.5,42.0,30.18,South,180,2.0,10.0,53,0.00,,,0.00,weatherlink.com 1.10,2013-05-05 23:25:00,
2013-05-05 19:40:00,58.3,41.0,30.18,ESE,111,0.0,7.0,54,0.00,,,0.00,weatherlink.com 1.10,2013-05-05 23:40:00,
2013-05-05 19:55:00,57.1,41.0,30.18,SSW,195,0.0,1.0,56,0.00,,,0.00,weatherlink.com 1.10,2013-05-05 23:55:00,
2013-05-05 20:10:00,55.7,41.0,30.19,ENE,73,1.0,6.0,58,0.00,,,0.00,weatherlink.com 1.10,2013-05-06 00:10:00,
2013-05-05 20:25:00,54.5,41.0,30.19,East,92,0.0,5.0,61,0.00,,,0.00,weatherlink.com 1.10,2013-05-06 00:25:00,
2013-05-05 20:40:00,53.6,41.0,30.20,East,84,3.0,3.0,63,0.00,,,0.00,weatherlink.com 1.10,2013-05-06 00:40:00,
2013-05-05 20:55:00,52.6,41.0,30.20,ENE,70,0.0,2.0,66,0.00,,,0.00,weatherlink.com 1.10,2013-05-06 00:55:00,
2013-05-05 21:10:00,51.5,41.0,30.20,ENE,71,0.0,1.0,68,0.00,,,0.00,weatherlink.com 1.10,2013-05-06 01:10:00,
2013-05-05 21:25:00,50.8,42.0,30.21,East,82,0.0,3.0,71,0.00,,,0.00,weatherlink.com 1.10,2013-05-06 01:25:00,
2013-05-05 21:40:00,50.2,42.0,30.21,ESE,116,0.0,4.0,73,0.00,,,0.00,weatherlink.com 1.10,2013-05-06 01:40:00,
2013-05-05 21:55:00,49.6,42.0,30.21,ESE,104,2.0,8.0,74,0.00,,,0.00,weatherlink.com 1.10,2013-05-06 01:55:00,
2013-05-05 22:10:00,49.1,41.0,30.21,East,98,1.0,9.0,74,0.00,,,0.00,weatherlink.com 1.10,2013-05-06 02:10:00,
2013-05-05 22:25:00,48.7,41.0,30.20,ESE,109,2.0,9.0,74,0.00,,,0.00,weatherlink.com 1.10,2013-05-06 02:25:00,
2013-05-05 22:40:00,48.1,41.0,30.20,East,91,0.0,5.0,75,0.00,,,0.00,weatherlink.com 1.10,2013-05-06 02:40:00,
2013-05-05 22:55:00,47.7,40.0,30.21,ENE,66,0.0,2.0,76,0.00,,,0.00,weatherlink.com 1.10,2013-05-06 02:55:00,
2013-05-05 23:10:00,47.2,40.0,30.22,ENE,61,0.0,1.0,77,0.00,,,0.00,weatherlink.com 1.10,2013-05-06 03:10:00,
2013-05-05 23:25:00,46.3,40.0,30.21,ENE,61,0.0,1.0,79,0.00,,,0.00,weatherlink.com 1.10,2013-05-06 03:25:00,
2013-05-05 23:40:00,45.1,40.0,30.21,East,80,0.0,3.0,81,0.00,,,0.00,weatherlink.com 1.10,2013-05-06 03:40:00,
2013-05-05 23:55:00,44.5,40.0,30.21,East,80,0.0,1.0,83,0.00,,,0.00,weatherlink.com 1.10,2013-05-06 03:55:00,